sensor_id;sensor_type;location;lat;lon;timestamp;P1;durP1;ratioP1;P2;durP2;ratioP2
74967;SDS011;63523;51.880;12.630;2024-01-30T00:01:21;8.82;;;3.20;;
74967;SDS011;63523;51.880;12.630;2024-01-30T00:03:46;9.97;;;3.30;;
74967;SDS011;63523;51.880;12.630;2024-01-30T00:06:12;8.13;;;2.87;;
74967;SDS011;63523;51.880;12.630;2024-01-30T00:08:37;10.17;;;3.30;;
74967;SDS011;63523;51.880;12.630;2024-01-30T00:11:02;8.80;;;2.90;;
74967;SDS011;63523;51.880;12.630;2024-01-30T00:13:28;8.00;;;3.00;;
74967;SDS011;63523;51.880;12.630;2024-01-30T00:15:53;7.10;;;2.47;;
74967;SDS011;63523;51.880;12.630;2024-01-30T00:18:18;8.97;;;3.00;;
74967;SDS011;63523;51.880;12.630;2024-01-30T00:20:44;7.10;;;2.58;;
74967;SDS011;63523;51.880;12.630;2024-01-30T00:23:09;9.77;;;3.07;;
74967;SDS011;63523;51.880;12.630;2024-01-30T00:25:35;9.33;;;3.33;;
74967;SDS011;63523;51.880;12.630;2024-01-30T00:28:00;9.13;;;2.83;;
74967;SDS011;63523;51.880;12.630;2024-01-30T00:30:26;9.48;;;3.53;;
74967;SDS011;63523;51.880;12.630;2024-01-30T00:32:51;7.80;;;3.00;;
74967;SDS011;63523;51.880;12.630;2024-01-30T00:35:16;11.77;;;3.30;;
74967;SDS011;63523;51.880;12.630;2024-01-30T00:37:42;10.47;;;3.97;;
74967;SDS011;63523;51.880;12.630;2024-01-30T00:40:07;8.03;;;3.23;;
74967;SDS011;63523;51.880;12.630;2024-01-30T00:42:35;10.40;;;3.65;;
74967;SDS011;63523;51.880;12.630;2024-01-30T00:45:00;10.37;;;4.07;;
74967;SDS011;63523;51.880;12.630;2024-01-30T00:47:26;10.37;;;4.10;;
74967;SDS011;63523;51.880;12.630;2024-01-30T00:49:51;10.25;;;3.97;;
74967;SDS011;63523;51.880;12.630;2024-01-30T00:52:16;13.67;;;4.43;;
74967;SDS011;63523;51.880;12.630;2024-01-30T00:54:41;8.87;;;3.47;;
74967;SDS011;63523;51.880;12.630;2024-01-30T00:57:08;8.95;;;3.80;;
74967;SDS011;63523;51.880;12.630;2024-01-30T00:59:33;9.43;;;3.60;;
74967;SDS011;63523;51.880;12.630;2024-01-30T01:01:58;11.50;;;3.83;;
74967;SDS011;63523;51.880;12.630;2024-01-30T01:04:24;8.97;;;3.40;;
74967;SDS011;63523;51.880;12.630;2024-01-30T01:06:49;10.30;;;3.83;;
74967;SDS011;63523;51.880;12.630;2024-01-30T01:09:14;9.80;;;3.80;;
74967;SDS011;63523;51.880;12.630;2024-01-30T01:11:40;10.97;;;4.73;;
74967;SDS011;63523;51.880;12.630;2024-01-30T01:14:05;11.63;;;3.67;;
74967;SDS011;63523;51.880;12.630;2024-01-30T01:16:30;9.43;;;3.50;;
74967;SDS011;63523;51.880;12.630;2024-01-30T01:18:56;11.07;;;3.87;;
74967;SDS011;63523;51.880;12.630;2024-01-30T01:21:21;9.37;;;3.40;;
74967;SDS011;63523;51.880;12.630;2024-01-30T01:23:46;9.50;;;3.50;;
74967;SDS011;63523;51.880;12.630;2024-01-30T01:26:12;12.53;;;3.30;;
74967;SDS011;63523;51.880;12.630;2024-01-30T01:28:39;9.80;;;3.87;;
74967;SDS011;63523;51.880;12.630;2024-01-30T01:31:05;9.48;;;3.33;;
74967;SDS011;63523;51.880;12.630;2024-01-30T01:33:31;11.67;;;4.10;;
74967;SDS011;63523;51.880;12.630;2024-01-30T01:35:58;10.98;;;3.60;;
74967;SDS011;63523;51.880;12.630;2024-01-30T01:38:23;10.67;;;3.30;;
74967;SDS011;63523;51.880;12.630;2024-01-30T01:40:48;9.20;;;3.17;;
74967;SDS011;63523;51.880;12.630;2024-01-30T01:43:14;11.67;;;3.03;;
74967;SDS011;63523;51.880;12.630;2024-01-30T01:45:39;7.95;;;3.17;;
74967;SDS011;63523;51.880;12.630;2024-01-30T01:48:04;7.77;;;3.00;;
74967;SDS011;63523;51.880;12.630;2024-01-30T01:50:30;7.32;;;2.78;;
74967;SDS011;63523;51.880;12.630;2024-01-30T01:52:55;8.70;;;2.90;;
74967;SDS011;63523;51.880;12.630;2024-01-30T01:55:21;7.93;;;2.85;;
74967;SDS011;63523;51.880;12.630;2024-01-30T01:57:49;9.13;;;2.78;;
74967;SDS011;63523;51.880;12.630;2024-01-30T02:00:14;7.90;;;3.00;;
74967;SDS011;63523;51.880;12.630;2024-01-30T02:02:40;8.60;;;3.25;;
74967;SDS011;63523;51.880;12.630;2024-01-30T02:05:06;9.30;;;3.30;;
74967;SDS011;63523;51.880;12.630;2024-01-30T02:07:32;8.57;;;3.67;;
74967;SDS011;63523;51.880;12.630;2024-01-30T02:09:58;8.27;;;3.10;;
74967;SDS011;63523;51.880;12.630;2024-01-30T02:12:23;9.57;;;3.40;;
74967;SDS011;63523;51.880;12.630;2024-01-30T02:14:48;7.70;;;2.60;;
74967;SDS011;63523;51.880;12.630;2024-01-30T02:17:15;8.43;;;3.17;;
74967;SDS011;63523;51.880;12.630;2024-01-30T02:19:41;9.38;;;3.10;;
74967;SDS011;63523;51.880;12.630;2024-01-30T02:22:07;7.40;;;2.70;;
74967;SDS011;63523;51.880;12.630;2024-01-30T02:24:33;8.75;;;3.28;;
74967;SDS011;63523;51.880;12.630;2024-01-30T02:26:58;8.03;;;2.60;;
74967;SDS011;63523;51.880;12.630;2024-01-30T02:29:23;9.13;;;3.00;;
74967;SDS011;63523;51.880;12.630;2024-01-30T02:31:48;9.17;;;3.20;;
74967;SDS011;63523;51.880;12.630;2024-01-30T02:34:14;7.67;;;3.00;;
74967;SDS011;63523;51.880;12.630;2024-01-30T02:36:42;10.90;;;3.10;;
74967;SDS011;63523;51.880;12.630;2024-01-30T02:39:08;11.05;;;3.13;;
74967;SDS011;63523;51.880;12.630;2024-01-30T02:41:33;10.00;;;3.47;;
74967;SDS011;63523;51.880;12.630;2024-01-30T02:43:58;8.60;;;2.90;;
74967;SDS011;63523;51.880;12.630;2024-01-30T02:46:24;8.77;;;2.85;;
74967;SDS011;63523;51.880;12.630;2024-01-30T02:48:49;7.90;;;2.77;;
74967;SDS011;63523;51.880;12.630;2024-01-30T02:51:14;8.43;;;3.00;;
74967;SDS011;63523;51.880;12.630;2024-01-30T02:53:40;9.63;;;2.90;;
74967;SDS011;63523;51.880;12.630;2024-01-30T02:56:05;7.50;;;2.70;;
74967;SDS011;63523;51.880;12.630;2024-01-30T02:58:30;8.40;;;3.30;;
74967;SDS011;63523;51.880;12.630;2024-01-30T03:00:56;8.87;;;2.80;;
74967;SDS011;63523;51.880;12.630;2024-01-30T03:03:21;8.07;;;2.50;;
74967;SDS011;63523;51.880;12.630;2024-01-30T03:05:46;10.23;;;3.10;;
74967;SDS011;63523;51.880;12.630;2024-01-30T03:08:12;8.77;;;2.80;;
74967;SDS011;63523;51.880;12.630;2024-01-30T03:10:37;9.30;;;2.70;;
74967;SDS011;63523;51.880;12.630;2024-01-30T03:13:02;7.67;;;2.70;;
74967;SDS011;63523;51.880;12.630;2024-01-30T03:15:27;7.73;;;2.70;;
74967;SDS011;63523;51.880;12.630;2024-01-30T03:17:53;10.07;;;2.77;;
74967;SDS011;63523;51.880;12.630;2024-01-30T03:20:19;8.85;;;3.00;;
74967;SDS011;63523;51.880;12.630;2024-01-30T03:22:44;9.33;;;3.03;;
74967;SDS011;63523;51.880;12.630;2024-01-30T03:25:10;7.73;;;2.87;;
74967;SDS011;63523;51.880;12.630;2024-01-30T03:27:35;7.53;;;2.67;;
74967;SDS011;63523;51.880;12.630;2024-01-30T03:30:00;7.43;;;2.80;;
74967;SDS011;63523;51.880;12.630;2024-01-30T03:32:26;8.93;;;2.90;;
74967;SDS011;63523;51.880;12.630;2024-01-30T03:34:51;6.85;;;2.38;;
74967;SDS011;63523;51.880;12.630;2024-01-30T03:37:16;7.57;;;3.00;;
74967;SDS011;63523;51.880;12.630;2024-01-30T03:39:42;7.63;;;2.47;;
74967;SDS011;63523;51.880;12.630;2024-01-30T03:42:07;7.87;;;2.60;;
74967;SDS011;63523;51.880;12.630;2024-01-30T03:44:32;8.03;;;2.90;;
74967;SDS011;63523;51.880;12.630;2024-01-30T03:46:57;10.17;;;2.80;;
74967;SDS011;63523;51.880;12.630;2024-01-30T03:49:23;7.47;;;2.60;;
74967;SDS011;63523;51.880;12.630;2024-01-30T03:51:48;7.77;;;2.67;;
74967;SDS011;63523;51.880;12.630;2024-01-30T03:54:13;8.17;;;3.97;;
74967;SDS011;63523;51.880;12.630;2024-01-30T03:56:39;8.50;;;3.00;;
74967;SDS011;63523;51.880;12.630;2024-01-30T03:59:04;9.10;;;3.13;;
74967;SDS011;63523;51.880;12.630;2024-01-30T04:01:29;8.20;;;2.80;;
74967;SDS011;63523;51.880;12.630;2024-01-30T04:03:54;8.43;;;3.23;;
74967;SDS011;63523;51.880;12.630;2024-01-30T04:06:20;7.17;;;2.40;;
74967;SDS011;63523;51.880;12.630;2024-01-30T04:08:45;6.80;;;2.30;;
74967;SDS011;63523;51.880;12.630;2024-01-30T04:11:10;8.03;;;2.83;;
74967;SDS011;63523;51.880;12.630;2024-01-30T04:13:35;7.70;;;2.77;;
74967;SDS011;63523;51.880;12.630;2024-01-30T04:16:01;8.27;;;2.80;;
74967;SDS011;63523;51.880;12.630;2024-01-30T04:18:27;7.57;;;2.38;;
74967;SDS011;63523;51.880;12.630;2024-01-30T04:20:53;9.67;;;3.10;;
74967;SDS011;63523;51.880;12.630;2024-01-30T04:23:18;7.72;;;2.60;;
74967;SDS011;63523;51.880;12.630;2024-01-30T04:25:44;7.87;;;2.70;;
74967;SDS011;63523;51.880;12.630;2024-01-30T04:28:09;8.63;;;3.07;;
74967;SDS011;63523;51.880;12.630;2024-01-30T04:30:36;7.07;;;2.28;;
74967;SDS011;63523;51.880;12.630;2024-01-30T04:33:02;7.57;;;2.70;;
74967;SDS011;63523;51.880;12.630;2024-01-30T04:35:27;7.03;;;2.60;;
74967;SDS011;63523;51.880;12.630;2024-01-30T04:37:52;11.73;;;2.70;;
74967;SDS011;63523;51.880;12.630;2024-01-30T04:40:18;7.30;;;2.53;;
74967;SDS011;63523;51.880;12.630;2024-01-30T04:42:43;7.70;;;2.60;;
74967;SDS011;63523;51.880;12.630;2024-01-30T04:45:09;7.27;;;2.27;;
74967;SDS011;63523;51.880;12.630;2024-01-30T04:47:34;6.70;;;2.63;;
74967;SDS011;63523;51.880;12.630;2024-01-30T04:49:59;9.60;;;2.65;;
74967;SDS011;63523;51.880;12.630;2024-01-30T04:52:24;9.23;;;2.43;;
74967;SDS011;63523;51.880;12.630;2024-01-30T04:54:50;8.70;;;2.60;;
74967;SDS011;63523;51.880;12.630;2024-01-30T04:57:15;7.43;;;2.57;;
74967;SDS011;63523;51.880;12.630;2024-01-30T04:59:40;8.03;;;2.80;;
74967;SDS011;63523;51.880;12.630;2024-01-30T05:02:05;8.63;;;2.67;;
74967;SDS011;63523;51.880;12.630;2024-01-30T05:04:31;6.75;;;2.47;;
74967;SDS011;63523;51.880;12.630;2024-01-30T05:06:57;9.40;;;2.70;;
74967;SDS011;63523;51.880;12.630;2024-01-30T05:09:22;7.17;;;2.83;;
74967;SDS011;63523;51.880;12.630;2024-01-30T05:11:47;7.83;;;2.70;;
74967;SDS011;63523;51.880;12.630;2024-01-30T05:14:12;7.13;;;2.20;;
74967;SDS011;63523;51.880;12.630;2024-01-30T05:16:40;6.93;;;2.88;;
74967;SDS011;63523;51.880;12.630;2024-01-30T05:19:05;10.10;;;3.25;;
74967;SDS011;63523;51.880;12.630;2024-01-30T05:21:30;8.90;;;3.00;;
74967;SDS011;63523;51.880;12.630;2024-01-30T05:23:55;7.45;;;2.65;;
74967;SDS011;63523;51.880;12.630;2024-01-30T05:26:21;8.07;;;2.88;;
74967;SDS011;63523;51.880;12.630;2024-01-30T05:28:47;7.40;;;2.92;;
74967;SDS011;63523;51.880;12.630;2024-01-30T05:31:13;8.63;;;2.78;;
74967;SDS011;63523;51.880;12.630;2024-01-30T05:33:38;8.93;;;3.20;;
74967;SDS011;63523;51.880;12.630;2024-01-30T05:36:03;8.50;;;2.53;;
74967;SDS011;63523;51.880;12.630;2024-01-30T05:38:29;9.73;;;3.50;;
74967;SDS011;63523;51.880;12.630;2024-01-30T05:40:55;8.45;;;2.90;;
74967;SDS011;63523;51.880;12.630;2024-01-30T05:43:20;8.73;;;3.20;;
74967;SDS011;63523;51.880;12.630;2024-01-30T05:45:46;8.33;;;2.90;;
74967;SDS011;63523;51.880;12.630;2024-01-30T05:48:11;9.47;;;3.30;;
74967;SDS011;63523;51.880;12.630;2024-01-30T05:50:36;10.07;;;3.67;;
74967;SDS011;63523;51.880;12.630;2024-01-30T05:53:01;9.67;;;3.13;;
74967;SDS011;63523;51.880;12.630;2024-01-30T05:55:27;11.07;;;3.53;;
74967;SDS011;63523;51.880;12.630;2024-01-30T05:57:52;11.27;;;3.67;;
74967;SDS011;63523;51.880;12.630;2024-01-30T06:00:17;9.70;;;3.20;;
74967;SDS011;63523;51.880;12.630;2024-01-30T06:02:43;10.55;;;3.63;;
74967;SDS011;63523;51.880;12.630;2024-01-30T06:05:08;8.97;;;3.30;;
74967;SDS011;63523;51.880;12.630;2024-01-30T06:07:33;10.37;;;3.07;;
74967;SDS011;63523;51.880;12.630;2024-01-30T06:09:59;9.03;;;3.40;;
74967;SDS011;63523;51.880;12.630;2024-01-30T06:12:27;9.55;;;3.35;;
74967;SDS011;63523;51.880;12.630;2024-01-30T06:14:52;7.93;;;3.03;;
74967;SDS011;63523;51.880;12.630;2024-01-30T06:17:19;9.02;;;3.28;;
74967;SDS011;63523;51.880;12.630;2024-01-30T06:19:44;8.67;;;2.93;;
74967;SDS011;63523;51.880;12.630;2024-01-30T06:22:09;8.10;;;2.70;;
74967;SDS011;63523;51.880;12.630;2024-01-30T06:24:35;8.63;;;3.27;;
74967;SDS011;63523;51.880;12.630;2024-01-30T06:27:00;9.27;;;3.33;;
74967;SDS011;63523;51.880;12.630;2024-01-30T06:29:26;10.53;;;3.07;;
74967;SDS011;63523;51.880;12.630;2024-01-30T06:31:51;8.37;;;2.87;;
74967;SDS011;63523;51.880;12.630;2024-01-30T06:34:17;8.75;;;3.20;;
74967;SDS011;63523;51.880;12.630;2024-01-30T06:36:42;9.03;;;3.50;;
74967;SDS011;63523;51.880;12.630;2024-01-30T06:39:07;9.47;;;3.83;;
74967;SDS011;63523;51.880;12.630;2024-01-30T06:41:33;8.63;;;3.40;;
74967;SDS011;63523;51.880;12.630;2024-01-30T06:43:58;10.63;;;3.80;;
74967;SDS011;63523;51.880;12.630;2024-01-30T06:46:24;9.37;;;3.40;;
74967;SDS011;63523;51.880;12.630;2024-01-30T06:48:49;9.67;;;3.47;;
74967;SDS011;63523;51.880;12.630;2024-01-30T06:51:14;11.53;;;4.30;;
74967;SDS011;63523;51.880;12.630;2024-01-30T06:53:39;10.10;;;3.83;;
74967;SDS011;63523;51.880;12.630;2024-01-30T06:56:05;9.03;;;3.53;;
74967;SDS011;63523;51.880;12.630;2024-01-30T06:58:30;11.75;;;4.10;;
74967;SDS011;63523;51.880;12.630;2024-01-30T07:00:57;12.10;;;4.47;;
74967;SDS011;63523;51.880;12.630;2024-01-30T07:03:22;12.17;;;4.00;;
74967;SDS011;63523;51.880;12.630;2024-01-30T07:05:47;9.97;;;4.07;;
74967;SDS011;63523;51.880;12.630;2024-01-30T07:08:13;9.95;;;3.88;;
74967;SDS011;63523;51.880;12.630;2024-01-30T07:10:42;11.27;;;3.67;;
74967;SDS011;63523;51.880;12.630;2024-01-30T07:13:07;10.53;;;3.90;;
74967;SDS011;63523;51.880;12.630;2024-01-30T07:15:34;11.35;;;3.85;;
74967;SDS011;63523;51.880;12.630;2024-01-30T07:18:01;8.32;;;3.63;;
74967;SDS011;63523;51.880;12.630;2024-01-30T07:20:26;10.93;;;3.70;;
74967;SDS011;63523;51.880;12.630;2024-01-30T07:22:52;10.43;;;3.53;;
74967;SDS011;63523;51.880;12.630;2024-01-30T07:25:17;10.53;;;3.73;;
74967;SDS011;63523;51.880;12.630;2024-01-30T07:27:42;10.87;;;3.70;;
74967;SDS011;63523;51.880;12.630;2024-01-30T07:30:07;9.80;;;3.83;;
74967;SDS011;63523;51.880;12.630;2024-01-30T07:32:33;9.43;;;3.70;;
74967;SDS011;63523;51.880;12.630;2024-01-30T07:34:58;9.50;;;3.40;;
74967;SDS011;63523;51.880;12.630;2024-01-30T07:37:23;9.63;;;3.50;;
74967;SDS011;63523;51.880;12.630;2024-01-30T07:39:49;10.38;;;3.08;;
74967;SDS011;63523;51.880;12.630;2024-01-30T07:42:14;8.80;;;3.20;;
74967;SDS011;63523;51.880;12.630;2024-01-30T07:44:39;10.07;;;3.47;;
74967;SDS011;63523;51.880;12.630;2024-01-30T07:47:05;10.23;;;3.70;;
74967;SDS011;63523;51.880;12.630;2024-01-30T07:49:30;9.50;;;3.43;;
74967;SDS011;63523;51.880;12.630;2024-01-30T07:51:55;10.63;;;3.83;;
74967;SDS011;63523;51.880;12.630;2024-01-30T07:54:21;11.63;;;3.80;;
74967;SDS011;63523;51.880;12.630;2024-01-30T07:56:46;10.80;;;3.73;;
74967;SDS011;63523;51.880;12.630;2024-01-30T07:59:11;11.53;;;4.47;;
74967;SDS011;63523;51.880;12.630;2024-01-30T08:01:37;10.73;;;3.97;;
74967;SDS011;63523;51.880;12.630;2024-01-30T08:04:02;12.93;;;4.40;;
74967;SDS011;63523;51.880;12.630;2024-01-30T08:06:28;11.83;;;4.10;;
74967;SDS011;63523;51.880;12.630;2024-01-30T08:08:53;10.83;;;4.27;;
74967;SDS011;63523;51.880;12.630;2024-01-30T08:11:21;10.87;;;4.47;;
74967;SDS011;63523;51.880;12.630;2024-01-30T08:13:54;11.90;;;5.10;;
74967;SDS011;63523;51.880;12.630;2024-01-30T08:16:19;14.55;;;4.13;;
74967;SDS011;63523;51.880;12.630;2024-01-30T08:18:44;16.07;;;4.83;;
74967;SDS011;63523;51.880;12.630;2024-01-30T08:21:10;13.17;;;4.20;;
74967;SDS011;63523;51.880;12.630;2024-01-30T08:23:35;14.27;;;4.70;;
74967;SDS011;63523;51.880;12.630;2024-01-30T08:26:00;13.07;;;4.33;;
74967;SDS011;63523;51.880;12.630;2024-01-30T08:28:26;12.05;;;3.83;;
74967;SDS011;63523;51.880;12.630;2024-01-30T08:30:51;12.63;;;4.50;;
74967;SDS011;63523;51.880;12.630;2024-01-30T08:33:17;10.40;;;4.13;;
74967;SDS011;63523;51.880;12.630;2024-01-30T08:35:42;12.67;;;4.20;;
74967;SDS011;63523;51.880;12.630;2024-01-30T08:38:07;11.13;;;4.00;;
74967;SDS011;63523;51.880;12.630;2024-01-30T08:40:33;13.70;;;4.50;;
74967;SDS011;63523;51.880;12.630;2024-01-30T08:42:58;12.60;;;4.07;;
74967;SDS011;63523;51.880;12.630;2024-01-30T08:45:23;11.63;;;4.30;;
74967;SDS011;63523;51.880;12.630;2024-01-30T08:47:48;12.00;;;4.23;;
74967;SDS011;63523;51.880;12.630;2024-01-30T08:50:14;11.43;;;4.30;;
74967;SDS011;63523;51.880;12.630;2024-01-30T08:52:39;16.20;;;6.27;;
74967;SDS011;63523;51.880;12.630;2024-01-30T08:55:04;14.27;;;6.03;;
74967;SDS011;63523;51.880;12.630;2024-01-30T08:57:30;15.73;;;5.77;;
74967;SDS011;63523;51.880;12.630;2024-01-30T08:59:55;15.03;;;6.00;;
74967;SDS011;63523;51.880;12.630;2024-01-30T09:02:21;15.82;;;5.90;;
74967;SDS011;63523;51.880;12.630;2024-01-30T09:04:46;13.27;;;5.43;;
74967;SDS011;63523;51.880;12.630;2024-01-30T09:07:11;12.80;;;4.93;;
74967;SDS011;63523;51.880;12.630;2024-01-30T09:09:38;15.70;;;5.93;;
74967;SDS011;63523;51.880;12.630;2024-01-30T09:12:06;12.07;;;5.03;;
74967;SDS011;63523;51.880;12.630;2024-01-30T09:14:34;14.50;;;5.60;;
74967;SDS011;63523;51.880;12.630;2024-01-30T09:17:00;13.10;;;5.32;;
74967;SDS011;63523;51.880;12.630;2024-01-30T09:19:25;12.73;;;5.70;;
74967;SDS011;63523;51.880;12.630;2024-01-30T09:21:50;12.73;;;5.30;;
74967;SDS011;63523;51.880;12.630;2024-01-30T09:24:15;13.97;;;6.03;;
74967;SDS011;63523;51.880;12.630;2024-01-30T09:26:41;12.13;;;5.83;;
74967;SDS011;63523;51.880;12.630;2024-01-30T09:29:06;38.17;;;12.95;;
74967;SDS011;63523;51.880;12.630;2024-01-30T09:31:32;59.80;;;20.63;;
74967;SDS011;63523;51.880;12.630;2024-01-30T09:33:57;33.67;;;12.87;;
74967;SDS011;63523;51.880;12.630;2024-01-30T09:36:22;19.73;;;7.13;;
74967;SDS011;63523;51.880;12.630;2024-01-30T09:38:48;15.80;;;6.13;;
74967;SDS011;63523;51.880;12.630;2024-01-30T09:41:13;14.50;;;5.80;;
74967;SDS011;63523;51.880;12.630;2024-01-30T09:43:40;13.93;;;5.85;;
74967;SDS011;63523;51.880;12.630;2024-01-30T09:46:11;14.82;;;5.93;;
74967;SDS011;63523;51.880;12.630;2024-01-30T09:48:43;15.73;;;5.60;;
74967;SDS011;63523;51.880;12.630;2024-01-30T09:51:08;13.07;;;5.23;;
74967;SDS011;63523;51.880;12.630;2024-01-30T09:53:34;16.15;;;5.40;;
74967;SDS011;63523;51.880;12.630;2024-01-30T09:56:01;14.13;;;5.75;;
74967;SDS011;63523;51.880;12.630;2024-01-30T09:58:27;14.10;;;5.40;;
74967;SDS011;63523;51.880;12.630;2024-01-30T10:00:52;15.10;;;5.80;;
74967;SDS011;63523;51.880;12.630;2024-01-30T10:03:18;14.30;;;6.10;;
74967;SDS011;63523;51.880;12.630;2024-01-30T10:05:44;15.93;;;6.37;;
74967;SDS011;63523;51.880;12.630;2024-01-30T10:08:18;16.77;;;5.95;;
74967;SDS011;63523;51.880;12.630;2024-01-30T10:10:46;10.73;;;5.35;;
74967;SDS011;63523;51.880;12.630;2024-01-30T10:13:12;14.90;;;6.13;;
74967;SDS011;63523;51.880;12.630;2024-01-30T10:15:37;14.10;;;5.50;;
74967;SDS011;63523;51.880;12.630;2024-01-30T10:18:03;12.67;;;5.27;;
74967;SDS011;63523;51.880;12.630;2024-01-30T10:20:31;15.98;;;5.68;;
74967;SDS011;63523;51.880;12.630;2024-01-30T10:22:57;12.13;;;5.70;;
74967;SDS011;63523;51.880;12.630;2024-01-30T10:25:22;14.33;;;6.40;;
74967;SDS011;63523;51.880;12.630;2024-01-30T10:27:51;11.93;;;5.47;;
74967;SDS011;63523;51.880;12.630;2024-01-30T10:30:19;14.00;;;5.68;;
74967;SDS011;63523;51.880;12.630;2024-01-30T10:32:44;12.37;;;6.03;;
74967;SDS011;63523;51.880;12.630;2024-01-30T10:35:09;13.83;;;5.87;;
74967;SDS011;63523;51.880;12.630;2024-01-30T10:37:34;14.07;;;6.07;;
74967;SDS011;63523;51.880;12.630;2024-01-30T10:40:02;12.90;;;5.33;;
74967;SDS011;63523;51.880;12.630;2024-01-30T10:42:31;17.50;;;6.30;;
74967;SDS011;63523;51.880;12.630;2024-01-30T10:45:00;14.82;;;5.78;;
74967;SDS011;63523;51.880;12.630;2024-01-30T10:47:32;12.85;;;5.05;;
74967;SDS011;63523;51.880;12.630;2024-01-30T10:49:59;12.40;;;5.50;;
74967;SDS011;63523;51.880;12.630;2024-01-30T10:52:24;16.60;;;6.23;;
74967;SDS011;63523;51.880;12.630;2024-01-30T10:54:51;12.77;;;5.45;;
74967;SDS011;63523;51.880;12.630;2024-01-30T10:57:17;13.87;;;5.87;;
74967;SDS011;63523;51.880;12.630;2024-01-30T10:59:43;13.18;;;5.57;;
74967;SDS011;63523;51.880;12.630;2024-01-30T11:02:09;12.57;;;5.55;;
74967;SDS011;63523;51.880;12.630;2024-01-30T11:04:40;14.00;;;5.80;;
74967;SDS011;63523;51.880;12.630;2024-01-30T11:07:15;14.38;;;5.95;;
74967;SDS011;63523;51.880;12.630;2024-01-30T11:09:48;12.55;;;5.35;;
74967;SDS011;63523;51.880;12.630;2024-01-30T11:12:37;12.02;;;5.28;;
74967;SDS011;63523;51.880;12.630;2024-01-30T11:15:09;10.00;;;3.78;;
74967;SDS011;63523;51.880;12.630;2024-01-30T11:17:40;11.73;;;4.40;;
74967;SDS011;63523;51.880;12.630;2024-01-30T11:20:10;9.63;;;4.55;;
74967;SDS011;63523;51.880;12.630;2024-01-30T11:22:36;9.52;;;3.80;;
74967;SDS011;63523;51.880;12.630;2024-01-30T11:25:02;8.63;;;4.00;;
74967;SDS011;63523;51.880;12.630;2024-01-30T11:27:28;11.13;;;3.80;;
74967;SDS011;63523;51.880;12.630;2024-01-30T11:30:00;9.98;;;3.63;;
74967;SDS011;63523;51.880;12.630;2024-01-30T11:32:26;10.07;;;4.38;;
74967;SDS011;63523;51.880;12.630;2024-01-30T11:34:52;10.77;;;3.60;;
74967;SDS011;63523;51.880;12.630;2024-01-30T11:37:17;13.77;;;4.80;;
74967;SDS011;63523;51.880;12.630;2024-01-30T11:39:46;11.35;;;4.40;;
74967;SDS011;63523;51.880;12.630;2024-01-30T11:42:12;10.05;;;4.03;;
74967;SDS011;63523;51.880;12.630;2024-01-30T11:44:38;10.23;;;4.20;;
74967;SDS011;63523;51.880;12.630;2024-01-30T11:47:03;10.40;;;4.50;;
74967;SDS011;63523;51.880;12.630;2024-01-30T11:49:29;9.93;;;4.23;;
74967;SDS011;63523;51.880;12.630;2024-01-30T11:51:54;8.77;;;3.90;;
74967;SDS011;63523;51.880;12.630;2024-01-30T11:54:19;10.67;;;4.37;;
74967;SDS011;63523;51.880;12.630;2024-01-30T11:56:45;14.70;;;4.43;;
74967;SDS011;63523;51.880;12.630;2024-01-30T11:59:10;9.17;;;4.20;;
74967;SDS011;63523;51.880;12.630;2024-01-30T12:01:35;8.17;;;3.67;;
74967;SDS011;63523;51.880;12.630;2024-01-30T12:04:01;10.43;;;4.30;;
74967;SDS011;63523;51.880;12.630;2024-01-30T12:06:27;10.38;;;4.13;;
74967;SDS011;63523;51.880;12.630;2024-01-30T12:08:57;9.90;;;4.10;;
74967;SDS011;63523;51.880;12.630;2024-01-30T12:11:24;10.55;;;4.18;;
74967;SDS011;63523;51.880;12.630;2024-01-30T12:13:49;11.63;;;4.67;;
74967;SDS011;63523;51.880;12.630;2024-01-30T12:16:15;10.75;;;4.40;;
74967;SDS011;63523;51.880;12.630;2024-01-30T12:18:41;11.30;;;4.07;;
74967;SDS011;63523;51.880;12.630;2024-01-30T12:21:06;9.80;;;3.80;;
74967;SDS011;63523;51.880;12.630;2024-01-30T12:23:33;10.18;;;3.85;;
74967;SDS011;63523;51.880;12.630;2024-01-30T12:26:00;8.77;;;3.55;;
74967;SDS011;63523;51.880;12.630;2024-01-30T12:28:27;8.23;;;3.53;;
74967;SDS011;63523;51.880;12.630;2024-01-30T12:30:56;9.57;;;4.07;;
74967;SDS011;63523;51.880;12.630;2024-01-30T12:33:24;8.38;;;3.08;;
74967;SDS011;63523;51.880;12.630;2024-01-30T12:35:51;10.47;;;3.67;;
74967;SDS011;63523;51.880;12.630;2024-01-30T12:38:17;8.82;;;3.22;;
74967;SDS011;63523;51.880;12.630;2024-01-30T12:40:42;8.50;;;3.33;;
74967;SDS011;63523;51.880;12.630;2024-01-30T12:43:07;11.30;;;3.83;;
74967;SDS011;63523;51.880;12.630;2024-01-30T12:45:33;8.90;;;3.37;;
74967;SDS011;63523;51.880;12.630;2024-01-30T12:47:58;7.53;;;3.53;;
74967;SDS011;63523;51.880;12.630;2024-01-30T12:50:23;9.95;;;4.00;;
74967;SDS011;63523;51.880;12.630;2024-01-30T12:52:49;9.10;;;4.20;;
74967;SDS011;63523;51.880;12.630;2024-01-30T12:55:14;11.20;;;4.70;;
74967;SDS011;63523;51.880;12.630;2024-01-30T12:57:39;12.87;;;5.27;;
74967;SDS011;63523;51.880;12.630;2024-01-30T13:00:05;10.50;;;4.63;;
74967;SDS011;63523;51.880;12.630;2024-01-30T13:02:33;9.27;;;3.75;;
74967;SDS011;63523;51.880;12.630;2024-01-30T13:04:59;8.68;;;3.78;;
74967;SDS011;63523;51.880;12.630;2024-01-30T13:07:25;11.30;;;4.23;;
74967;SDS011;63523;51.880;12.630;2024-01-30T13:09:50;10.13;;;3.67;;
74967;SDS011;63523;51.880;12.630;2024-01-30T13:12:15;8.93;;;4.00;;
74967;SDS011;63523;51.880;12.630;2024-01-30T13:14:41;8.93;;;3.78;;
74967;SDS011;63523;51.880;12.630;2024-01-30T13:17:06;15.63;;;5.03;;
74967;SDS011;63523;51.880;12.630;2024-01-30T13:19:31;9.07;;;4.50;;
74967;SDS011;63523;51.880;12.630;2024-01-30T13:21:56;10.17;;;4.10;;
74967;SDS011;63523;51.880;12.630;2024-01-30T13:24:22;9.00;;;4.20;;
74967;SDS011;63523;51.880;12.630;2024-01-30T13:26:47;10.50;;;3.83;;
74967;SDS011;63523;51.880;12.630;2024-01-30T13:29:13;8.35;;;3.33;;
74967;SDS011;63523;51.880;12.630;2024-01-30T13:31:39;9.77;;;3.70;;
74967;SDS011;63523;51.880;12.630;2024-01-30T13:34:04;10.23;;;3.73;;
74967;SDS011;63523;51.880;12.630;2024-01-30T13:36:31;7.60;;;3.37;;
74967;SDS011;63523;51.880;12.630;2024-01-30T13:38:57;10.05;;;3.72;;
74967;SDS011;63523;51.880;12.630;2024-01-30T13:41:22;8.83;;;3.50;;
74967;SDS011;63523;51.880;12.630;2024-01-30T13:43:48;10.30;;;3.67;;
74967;SDS011;63523;51.880;12.630;2024-01-30T13:46:13;10.10;;;3.58;;
74967;SDS011;63523;51.880;12.630;2024-01-30T13:48:39;8.20;;;3.40;;
74967;SDS011;63523;51.880;12.630;2024-01-30T13:51:04;9.90;;;3.80;;
74967;SDS011;63523;51.880;12.630;2024-01-30T13:53:29;8.37;;;3.70;;
74967;SDS011;63523;51.880;12.630;2024-01-30T13:55:55;9.40;;;3.80;;
74967;SDS011;63523;51.880;12.630;2024-01-30T13:58:20;7.83;;;3.30;;
74967;SDS011;63523;51.880;12.630;2024-01-30T14:00:45;8.50;;;3.70;;
74967;SDS011;63523;51.880;12.630;2024-01-30T14:03:11;7.57;;;3.47;;
74967;SDS011;63523;51.880;12.630;2024-01-30T14:05:36;8.87;;;3.80;;
74967;SDS011;63523;51.880;12.630;2024-01-30T14:08:01;9.90;;;4.23;;
74967;SDS011;63523;51.880;12.630;2024-01-30T14:10:27;10.17;;;3.70;;
74967;SDS011;63523;51.880;12.630;2024-01-30T14:12:52;12.13;;;4.70;;
74967;SDS011;63523;51.880;12.630;2024-01-30T14:15:17;10.37;;;3.80;;
74967;SDS011;63523;51.880;12.630;2024-01-30T14:17:43;11.25;;;4.35;;
74967;SDS011;63523;51.880;12.630;2024-01-30T14:20:10;8.53;;;3.73;;